sensor_id;sensor_type;location;lat;lon;timestamp;P1;durP1;ratioP1;P2;durP2;ratioP2
3417;SDS011;68007;51.312;12.372;2024-01-25T00:01:46;21.93;;;3.73;;
3417;SDS011;68007;51.312;12.372;2024-01-25T00:04:14;22.13;;;3.73;;
3417;SDS011;68007;51.312;12.372;2024-01-25T00:06:41;16.73;;;3.10;;
3417;SDS011;68007;51.312;12.372;2024-01-25T00:09:09;20.27;;;3.67;;
3417;SDS011;68007;51.312;12.372;2024-01-25T00:11:36;22.57;;;3.83;;
3417;SDS011;68007;51.312;12.372;2024-01-25T00:14:04;15.90;;;3.40;;
3417;SDS011;68007;51.312;12.372;2024-01-25T00:16:32;15.90;;;3.10;;
3417;SDS011;68007;51.312;12.372;2024-01-25T00:19:00;20.60;;;3.90;;
3417;SDS011;68007;51.312;12.372;2024-01-25T00:21:27;16.47;;;3.40;;
3417;SDS011;68007;51.312;12.372;2024-01-25T00:23:55;17.87;;;4.00;;
3417;SDS011;68007;51.312;12.372;2024-01-25T00:26:22;19.00;;;3.87;;
3417;SDS011;68007;51.312;12.372;2024-01-25T00:28:50;22.20;;;4.77;;
3417;SDS011;68007;51.312;12.372;2024-01-25T00:31:17;18.73;;;3.93;;
3417;SDS011;68007;51.312;12.372;2024-01-25T00:33:46;19.43;;;4.50;;
3417;SDS011;68007;51.312;12.372;2024-01-25T00:36:14;17.30;;;4.53;;
3417;SDS011;68007;51.312;12.372;2024-01-25T00:38:43;16.97;;;3.37;;
3417;SDS011;68007;51.312;12.372;2024-01-25T00:41:11;19.00;;;4.03;;
3417;SDS011;68007;51.312;12.372;2024-01-25T00:43:44;30.30;;;4.40;;
3417;SDS011;68007;51.312;12.372;2024-01-25T00:46:13;15.77;;;3.47;;
3417;SDS011;68007;51.312;12.372;2024-01-25T00:48:41;24.30;;;3.97;;
3417;SDS011;68007;51.312;12.372;2024-01-25T00:51:12;13.83;;;3.50;;
3417;SDS011;68007;51.312;12.372;2024-01-25T00:53:42;19.70;;;4.40;;
3417;SDS011;68007;51.312;12.372;2024-01-25T00:56:11;20.27;;;3.93;;
3417;SDS011;68007;51.312;12.372;2024-01-25T00:58:39;20.30;;;3.43;;
3417;SDS011;68007;51.312;12.372;2024-01-25T01:01:07;20.60;;;3.93;;
3417;SDS011;68007;51.312;12.372;2024-01-25T01:03:36;22.67;;;4.00;;
3417;SDS011;68007;51.312;12.372;2024-01-25T01:06:04;21.67;;;4.40;;
3417;SDS011;68007;51.312;12.372;2024-01-25T01:08:34;29.23;;;4.60;;
3417;SDS011;68007;51.312;12.372;2024-01-25T01:11:02;16.87;;;4.07;;
3417;SDS011;68007;51.312;12.372;2024-01-25T01:13:30;17.47;;;4.50;;
3417;SDS011;68007;51.312;12.372;2024-01-25T01:15:58;12.50;;;3.70;;
3417;SDS011;68007;51.312;12.372;2024-01-25T01:18:25;23.70;;;4.63;;
3417;SDS011;68007;51.312;12.372;2024-01-25T01:20:53;23.30;;;4.37;;
3417;SDS011;68007;51.312;12.372;2024-01-25T01:23:20;12.70;;;3.50;;
3417;SDS011;68007;51.312;12.372;2024-01-25T01:25:49;20.40;;;4.70;;
3417;SDS011;68007;51.312;12.372;2024-01-25T01:28:17;18.93;;;3.70;;
3417;SDS011;68007;51.312;12.372;2024-01-25T01:30:44;19.30;;;4.20;;
3417;SDS011;68007;51.312;12.372;2024-01-25T01:33:12;26.90;;;4.60;;
3417;SDS011;68007;51.312;12.372;2024-01-25T01:35:40;22.63;;;4.53;;
3417;SDS011;68007;51.312;12.372;2024-01-25T01:38:07;18.03;;;3.87;;
3417;SDS011;68007;51.312;12.372;2024-01-25T01:40:35;14.23;;;3.67;;
3417;SDS011;68007;51.312;12.372;2024-01-25T01:43:04;22.10;;;3.73;;
3417;SDS011;68007;51.312;12.372;2024-01-25T01:45:31;25.93;;;4.33;;
3417;SDS011;68007;51.312;12.372;2024-01-25T01:47:59;20.00;;;4.60;;
3417;SDS011;68007;51.312;12.372;2024-01-25T01:50:26;28.60;;;4.87;;
3417;SDS011;68007;51.312;12.372;2024-01-25T01:52:54;18.37;;;3.97;;
3417;SDS011;68007;51.312;12.372;2024-01-25T01:55:22;15.37;;;3.23;;
3417;SDS011;68007;51.312;12.372;2024-01-25T01:57:50;12.70;;;3.30;;
3417;SDS011;68007;51.312;12.372;2024-01-25T02:00:19;26.97;;;4.60;;
3417;SDS011;68007;51.312;12.372;2024-01-25T02:02:48;15.90;;;3.73;;
3417;SDS011;68007;51.312;12.372;2024-01-25T02:05:15;28.43;;;4.47;;
3417;SDS011;68007;51.312;12.372;2024-01-25T02:07:43;24.93;;;4.10;;
3417;SDS011;68007;51.312;12.372;2024-01-25T02:10:11;20.27;;;4.80;;
3417;SDS011;68007;51.312;12.372;2024-01-25T02:12:39;18.60;;;4.10;;
3417;SDS011;68007;51.312;12.372;2024-01-25T02:15:06;20.53;;;3.30;;
3417;SDS011;68007;51.312;12.372;2024-01-25T02:17:35;25.37;;;4.83;;
3417;SDS011;68007;51.312;12.372;2024-01-25T02:20:03;22.77;;;4.50;;
3417;SDS011;68007;51.312;12.372;2024-01-25T02:22:33;24.37;;;4.70;;
3417;SDS011;68007;51.312;12.372;2024-01-25T02:25:01;18.17;;;4.00;;
3417;SDS011;68007;51.312;12.372;2024-01-25T02:27:28;16.10;;;3.80;;
3417;SDS011;68007;51.312;12.372;2024-01-25T02:29:56;17.13;;;4.00;;
3417;SDS011;68007;51.312;12.372;2024-01-25T02:32:23;28.03;;;4.37;;
3417;SDS011;68007;51.312;12.372;2024-01-25T02:34:51;24.17;;;4.23;;
3417;SDS011;68007;51.312;12.372;2024-01-25T02:37:18;21.53;;;3.70;;
3417;SDS011;68007;51.312;12.372;2024-01-25T02:39:47;16.73;;;3.60;;
3417;SDS011;68007;51.312;12.372;2024-01-25T02:42:14;18.87;;;4.07;;
3417;SDS011;68007;51.312;12.372;2024-01-25T02:44:42;25.83;;;3.87;;
3417;SDS011;68007;51.312;12.372;2024-01-25T02:47:10;19.20;;;4.40;;
3417;SDS011;68007;51.312;12.372;2024-01-25T02:49:38;20.87;;;4.90;;
3417;SDS011;68007;51.312;12.372;2024-01-25T02:52:05;14.53;;;3.37;;
3417;SDS011;68007;51.312;12.372;2024-01-25T02:54:34;26.30;;;4.67;;
3417;SDS011;68007;51.312;12.372;2024-01-25T02:57:04;16.33;;;3.40;;
3417;SDS011;68007;51.312;12.372;2024-01-25T02:59:31;24.57;;;4.37;;
3417;SDS011;68007;51.312;12.372;2024-01-25T03:01:59;26.50;;;5.00;;
3417;SDS011;68007;51.312;12.372;2024-01-25T03:04:26;28.57;;;4.10;;
3417;SDS011;68007;51.312;12.372;2024-01-25T03:06:54;20.00;;;4.17;;
3417;SDS011;68007;51.312;12.372;2024-01-25T03:09:21;23.23;;;4.77;;
3417;SDS011;68007;51.312;12.372;2024-01-25T03:11:49;22.87;;;4.10;;
3417;SDS011;68007;51.312;12.372;2024-01-25T03:14:18;21.33;;;3.90;;
3417;SDS011;68007;51.312;12.372;2024-01-25T03:16:45;20.50;;;3.83;;
3417;SDS011;68007;51.312;12.372;2024-01-25T03:19:13;17.47;;;3.60;;
3417;SDS011;68007;51.312;12.372;2024-01-25T03:21:40;18.63;;;3.87;;
3417;SDS011;68007;51.312;12.372;2024-01-25T03:24:08;23.23;;;4.47;;
3417;SDS011;68007;51.312;12.372;2024-01-25T03:26:35;28.60;;;4.03;;
3417;SDS011;68007;51.312;12.372;2024-01-25T03:29:03;19.77;;;3.83;;
3417;SDS011;68007;51.312;12.372;2024-01-25T03:31:32;28.27;;;4.13;;
3417;SDS011;68007;51.312;12.372;2024-01-25T03:34:01;20.73;;;4.30;;
3417;SDS011;68007;51.312;12.372;2024-01-25T03:36:29;16.87;;;3.97;;
3417;SDS011;68007;51.312;12.372;2024-01-25T03:38:57;22.17;;;3.80;;
3417;SDS011;68007;51.312;12.372;2024-01-25T03:41:24;24.33;;;3.80;;
3417;SDS011;68007;51.312;12.372;2024-01-25T03:43:54;24.63;;;4.03;;
3417;SDS011;68007;51.312;12.372;2024-01-25T03:46:22;19.03;;;4.30;;
3417;SDS011;68007;51.312;12.372;2024-01-25T03:48:51;20.30;;;4.27;;
3417;SDS011;68007;51.312;12.372;2024-01-25T03:51:20;25.70;;;4.53;;
3417;SDS011;68007;51.312;12.372;2024-01-25T03:53:49;19.37;;;4.00;;
3417;SDS011;68007;51.312;12.372;2024-01-25T03:56:18;25.30;;;4.50;;
3417;SDS011;68007;51.312;12.372;2024-01-25T03:58:46;30.57;;;5.13;;
3417;SDS011;68007;51.312;12.372;2024-01-25T04:01:13;23.10;;;4.30;;
3417;SDS011;68007;51.312;12.372;2024-01-25T04:03:41;21.63;;;3.57;;
3417;SDS011;68007;51.312;12.372;2024-01-25T04:06:09;16.10;;;3.50;;
3417;SDS011;68007;51.312;12.372;2024-01-25T04:08:37;18.10;;;3.70;;
3417;SDS011;68007;51.312;12.372;2024-01-25T04:11:05;25.40;;;5.03;;
3417;SDS011;68007;51.312;12.372;2024-01-25T04:13:33;21.40;;;3.93;;
3417;SDS011;68007;51.312;12.372;2024-01-25T04:16:02;23.53;;;5.20;;
3417;SDS011;68007;51.312;12.372;2024-01-25T04:18:55;12.87;;;3.77;;
3417;SDS011;68007;51.312;12.372;2024-01-25T04:21:29;33.70;;;4.70;;
3417;SDS011;68007;51.312;12.372;2024-01-25T04:23:56;20.50;;;4.27;;
3417;SDS011;68007;51.312;12.372;2024-01-25T04:26:24;23.67;;;4.60;;
3417;SDS011;68007;51.312;12.372;2024-01-25T04:28:52;31.90;;;5.43;;
3417;SDS011;68007;51.312;12.372;2024-01-25T04:31:19;20.33;;;4.60;;
3417;SDS011;68007;51.312;12.372;2024-01-25T04:33:47;19.00;;;3.80;;
3417;SDS011;68007;51.312;12.372;2024-01-25T04:36:15;24.53;;;4.27;;
3417;SDS011;68007;51.312;12.372;2024-01-25T04:38:43;18.50;;;3.63;;
3417;SDS011;68007;51.312;12.372;2024-01-25T04:41:11;22.20;;;4.53;;
3417;SDS011;68007;51.312;12.372;2024-01-25T04:43:39;20.20;;;4.10;;
3417;SDS011;68007;51.312;12.372;2024-01-25T04:46:06;23.47;;;4.17;;
3417;SDS011;68007;51.312;12.372;2024-01-25T04:48:34;18.30;;;4.30;;
3417;SDS011;68007;51.312;12.372;2024-01-25T04:51:02;28.73;;;4.67;;
3417;SDS011;68007;51.312;12.372;2024-01-25T04:53:30;27.93;;;4.10;;
3417;SDS011;68007;51.312;12.372;2024-01-25T04:55:59;22.03;;;4.77;;
3417;SDS011;68007;51.312;12.372;2024-01-25T04:58:26;30.07;;;4.70;;
3417;SDS011;68007;51.312;12.372;2024-01-25T05:00:54;23.50;;;4.30;;
3417;SDS011;68007;51.312;12.372;2024-01-25T05:03:21;18.33;;;4.00;;
3417;SDS011;68007;51.312;12.372;2024-01-25T05:05:49;20.63;;;4.50;;
3417;SDS011;68007;51.312;12.372;2024-01-25T05:08:16;18.00;;;4.07;;
3417;SDS011;68007;51.312;12.372;2024-01-25T05:10:44;17.83;;;3.70;;
3417;SDS011;68007;51.312;12.372;2024-01-25T05:13:13;18.53;;;3.50;;
3417;SDS011;68007;51.312;12.372;2024-01-25T05:15:41;20.67;;;4.30;;
3417;SDS011;68007;51.312;12.372;2024-01-25T05:18:08;24.57;;;4.07;;
3417;SDS011;68007;51.312;12.372;2024-01-25T05:20:36;21.27;;;4.00;;
3417;SDS011;68007;51.312;12.372;2024-01-25T05:23:04;21.17;;;4.00;;
3417;SDS011;68007;51.312;12.372;2024-01-25T05:25:31;18.97;;;4.07;;
3417;SDS011;68007;51.312;12.372;2024-01-25T05:27:59;15.23;;;3.60;;
3417;SDS011;68007;51.312;12.372;2024-01-25T05:30:28;12.60;;;3.70;;
3417;SDS011;68007;51.312;12.372;2024-01-25T05:32:55;18.90;;;3.80;;
3417;SDS011;68007;51.312;12.372;2024-01-25T05:35:23;19.57;;;4.13;;
3417;SDS011;68007;51.312;12.372;2024-01-25T05:37:50;21.00;;;3.83;;
3417;SDS011;68007;51.312;12.372;2024-01-25T05:40:18;22.67;;;3.50;;
3417;SDS011;68007;51.312;12.372;2024-01-25T05:42:46;12.37;;;3.60;;
3417;SDS011;68007;51.312;12.372;2024-01-25T05:45:13;24.57;;;3.90;;
3417;SDS011;68007;51.312;12.372;2024-01-25T05:47:42;16.60;;;3.83;;
3417;SDS011;68007;51.312;12.372;2024-01-25T05:50:10;19.03;;;3.63;;
3417;SDS011;68007;51.312;12.372;2024-01-25T05:52:37;14.67;;;3.63;;
3417;SDS011;68007;51.312;12.372;2024-01-25T05:55:05;17.53;;;3.67;;
3417;SDS011;68007;51.312;12.372;2024-01-25T05:57:34;23.10;;;4.50;;
3417;SDS011;68007;51.312;12.372;2024-01-25T06:00:02;15.23;;;3.67;;
3417;SDS011;68007;51.312;12.372;2024-01-25T06:02:31;20.00;;;3.30;;
3417;SDS011;68007;51.312;12.372;2024-01-25T06:05:00;15.57;;;3.17;;
3417;SDS011;68007;51.312;12.372;2024-01-25T06:07:28;20.20;;;4.40;;
3417;SDS011;68007;51.312;12.372;2024-01-25T06:09:55;13.47;;;2.83;;
3417;SDS011;68007;51.312;12.372;2024-01-25T06:12:23;13.93;;;3.50;;
3417;SDS011;68007;51.312;12.372;2024-01-25T06:14:50;11.30;;;3.33;;
3417;SDS011;68007;51.312;12.372;2024-01-25T06:17:18;17.70;;;3.70;;
3417;SDS011;68007;51.312;12.372;2024-01-25T06:19:46;23.57;;;3.80;;
3417;SDS011;68007;51.312;12.372;2024-01-25T06:22:15;17.30;;;3.50;;
3417;SDS011;68007;51.312;12.372;2024-01-25T06:24:43;13.00;;;2.77;;
3417;SDS011;68007;51.312;12.372;2024-01-25T06:27:10;16.90;;;3.70;;
3417;SDS011;68007;51.312;12.372;2024-01-25T06:29:38;19.37;;;4.10;;
3417;SDS011;68007;51.312;12.372;2024-01-25T06:32:05;16.60;;;3.80;;
3417;SDS011;68007;51.312;12.372;2024-01-25T06:34:33;12.93;;;3.73;;
3417;SDS011;68007;51.312;12.372;2024-01-25T06:37:01;16.60;;;3.67;;
3417;SDS011;68007;51.312;12.372;2024-01-25T06:39:29;18.77;;;3.90;;
3417;SDS011;68007;51.312;12.372;2024-01-25T06:41:58;17.73;;;3.37;;
3417;SDS011;68007;51.312;12.372;2024-01-25T06:44:25;22.30;;;4.07;;
3417;SDS011;68007;51.312;12.372;2024-01-25T06:46:53;17.07;;;3.37;;
3417;SDS011;68007;51.312;12.372;2024-01-25T06:49:20;18.53;;;3.37;;
3417;SDS011;68007;51.312;12.372;2024-01-25T06:51:48;14.80;;;2.77;;
3417;SDS011;68007;51.312;12.372;2024-01-25T06:54:15;17.03;;;3.57;;
3417;SDS011;68007;51.312;12.372;2024-01-25T06:56:44;19.90;;;3.50;;
3417;SDS011;68007;51.312;12.372;2024-01-25T06:59:11;11.73;;;2.93;;
3417;SDS011;68007;51.312;12.372;2024-01-25T07:01:39;14.03;;;3.63;;
3417;SDS011;68007;51.312;12.372;2024-01-25T07:04:07;17.10;;;3.50;;
3417;SDS011;68007;51.312;12.372;2024-01-25T07:06:34;17.57;;;3.40;;
3417;SDS011;68007;51.312;12.372;2024-01-25T07:09:02;15.83;;;3.30;;
3417;SDS011;68007;51.312;12.372;2024-01-25T07:11:29;17.90;;;3.10;;
3417;SDS011;68007;51.312;12.372;2024-01-25T07:13:57;16.67;;;3.47;;
3417;SDS011;68007;51.312;12.372;2024-01-25T07:16:25;16.70;;;3.33;;
3417;SDS011;68007;51.312;12.372;2024-01-25T07:18:52;17.67;;;3.40;;
3417;SDS011;68007;51.312;12.372;2024-01-25T07:21:20;17.47;;;3.20;;
3417;SDS011;68007;51.312;12.372;2024-01-25T07:23:47;19.10;;;4.13;;
3417;SDS011;68007;51.312;12.372;2024-01-25T07:26:18;18.60;;;3.87;;
3417;SDS011;68007;51.312;12.372;2024-01-25T07:28:45;19.83;;;4.00;;
3417;SDS011;68007;51.312;12.372;2024-01-25T07:31:14;18.90;;;3.70;;
3417;SDS011;68007;51.312;12.372;2024-01-25T07:33:42;17.70;;;3.70;;
3417;SDS011;68007;51.312;12.372;2024-01-25T07:36:09;19.23;;;3.67;;
3417;SDS011;68007;51.312;12.372;2024-01-25T07:38:37;20.50;;;3.70;;
3417;SDS011;68007;51.312;12.372;2024-01-25T07:41:07;15.40;;;4.03;;
3417;SDS011;68007;51.312;12.372;2024-01-25T07:43:34;16.20;;;3.60;;
3417;SDS011;68007;51.312;12.372;2024-01-25T07:46:01;12.47;;;3.23;;
3417;SDS011;68007;51.312;12.372;2024-01-25T07:48:31;12.73;;;3.40;;
3417;SDS011;68007;51.312;12.372;2024-01-25T07:50:58;16.30;;;3.07;;
3417;SDS011;68007;51.312;12.372;2024-01-25T07:53:26;14.93;;;4.00;;
3417;SDS011;68007;51.312;12.372;2024-01-25T07:55:53;16.30;;;3.90;;
3417;SDS011;68007;51.312;12.372;2024-01-25T07:58:21;15.97;;;3.83;;
3417;SDS011;68007;51.312;12.372;2024-01-25T08:00:48;15.73;;;4.03;;
3417;SDS011;68007;51.312;12.372;2024-01-25T08:03:17;20.13;;;4.13;;
3417;SDS011;68007;51.312;12.372;2024-01-25T08:05:45;24.47;;;3.67;;
3417;SDS011;68007;51.312;12.372;2024-01-25T08:08:13;16.10;;;3.30;;
3417;SDS011;68007;51.312;12.372;2024-01-25T08:10:41;17.23;;;3.97;;
3417;SDS011;68007;51.312;12.372;2024-01-25T08:13:11;18.43;;;4.17;;
3417;SDS011;68007;51.312;12.372;2024-01-25T08:15:39;20.03;;;3.57;;
3417;SDS011;68007;51.312;12.372;2024-01-25T08:18:06;19.53;;;3.80;;
3417;SDS011;68007;51.312;12.372;2024-01-25T08:20:35;15.00;;;2.87;;
3417;SDS011;68007;51.312;12.372;2024-01-25T08:23:05;11.70;;;3.43;;
3417;SDS011;68007;51.312;12.372;2024-01-25T08:25:34;21.90;;;3.70;;
3417;SDS011;68007;51.312;12.372;2024-01-25T08:28:02;20.83;;;3.40;;
3417;SDS011;68007;51.312;12.372;2024-01-25T08:30:30;12.57;;;3.10;;
3417;SDS011;68007;51.312;12.372;2024-01-25T08:32:58;15.90;;;3.90;;
3417;SDS011;68007;51.312;12.372;2024-01-25T08:35:25;22.20;;;3.53;;
3417;SDS011;68007;51.312;12.372;2024-01-25T08:37:53;17.73;;;3.80;;
3417;SDS011;68007;51.312;12.372;2024-01-25T08:40:22;22.53;;;4.20;;
3417;SDS011;68007;51.312;12.372;2024-01-25T08:42:49;14.97;;;3.50;;
3417;SDS011;68007;51.312;12.372;2024-01-25T08:45:17;21.03;;;3.63;;
3417;SDS011;68007;51.312;12.372;2024-01-25T08:47:44;20.37;;;3.93;;
3417;SDS011;68007;51.312;12.372;2024-01-25T08:50:12;21.73;;;4.20;;
3417;SDS011;68007;51.312;12.372;2024-01-25T08:52:40;22.87;;;3.27;;
3417;SDS011;68007;51.312;12.372;2024-01-25T08:55:07;19.27;;;4.30;;
3417;SDS011;68007;51.312;12.372;2024-01-25T08:57:37;14.70;;;3.60;;
3417;SDS011;68007;51.312;12.372;2024-01-25T09:00:06;16.63;;;2.83;;
3417;SDS011;68007;51.312;12.372;2024-01-25T09:02:36;19.37;;;4.27;;
3417;SDS011;68007;51.312;12.372;2024-01-25T09:05:04;16.57;;;2.90;;
3417;SDS011;68007;51.312;12.372;2024-01-25T09:07:32;20.30;;;3.30;;
3417;SDS011;68007;51.312;12.372;2024-01-25T09:10:00;15.27;;;3.50;;
3417;SDS011;68007;51.312;12.372;2024-01-25T09:12:28;17.33;;;3.03;;
3417;SDS011;68007;51.312;12.372;2024-01-25T09:14:56;22.77;;;3.43;;
3417;SDS011;68007;51.312;12.372;2024-01-25T09:17:24;12.33;;;3.30;;
3417;SDS011;68007;51.312;12.372;2024-01-25T09:19:51;19.77;;;4.43;;
3417;SDS011;68007;51.312;12.372;2024-01-25T09:22:19;17.90;;;3.10;;
3417;SDS011;68007;51.312;12.372;2024-01-25T09:24:47;18.73;;;3.20;;
3417;SDS011;68007;51.312;12.372;2024-01-25T09:27:14;18.47;;;3.27;;
3417;SDS011;68007;51.312;12.372;2024-01-25T09:29:42;14.50;;;3.77;;
3417;SDS011;68007;51.312;12.372;2024-01-25T09:32:11;15.70;;;3.60;;
3417;SDS011;68007;51.312;12.372;2024-01-25T09:34:38;14.27;;;3.23;;
3417;SDS011;68007;51.312;12.372;2024-01-25T09:37:06;19.07;;;4.50;;
3417;SDS011;68007;51.312;12.372;2024-01-25T09:39:33;22.40;;;3.53;;
3417;SDS011;68007;51.312;12.372;2024-01-25T09:42:02;18.00;;;3.50;;
3417;SDS011;68007;51.312;12.372;2024-01-25T09:44:30;16.00;;;3.20;;
3417;SDS011;68007;51.312;12.372;2024-01-25T09:46:57;20.67;;;3.10;;
3417;SDS011;68007;51.312;12.372;2024-01-25T09:49:26;13.23;;;3.03;;
3417;SDS011;68007;51.312;12.372;2024-01-25T09:51:54;10.43;;;3.00;;
3417;SDS011;68007;51.312;12.372;2024-01-25T09:54:22;18.40;;;3.50;;
3417;SDS011;68007;51.312;12.372;2024-01-25T09:56:51;10.97;;;3.07;;
3417;SDS011;68007;51.312;12.372;2024-01-25T09:59:21;12.67;;;3.10;;
3417;SDS011;68007;51.312;12.372;2024-01-25T10:01:49;19.97;;;3.90;;
3417;SDS011;68007;51.312;12.372;2024-01-25T10:04:17;15.97;;;3.03;;
3417;SDS011;68007;51.312;12.372;2024-01-25T10:06:49;13.23;;;2.60;;
3417;SDS011;68007;51.312;12.372;2024-01-25T10:09:16;11.80;;;2.60;;
3417;SDS011;68007;51.312;12.372;2024-01-25T10:11:44;18.13;;;3.00;;
3417;SDS011;68007;51.312;12.372;2024-01-25T10:14:11;16.10;;;3.07;;
3417;SDS011;68007;51.312;12.372;2024-01-25T10:16:39;19.23;;;3.80;;
3417;SDS011;68007;51.312;12.372;2024-01-25T10:19:06;23.50;;;4.27;;
3417;SDS011;68007;51.312;12.372;2024-01-25T10:21:35;12.33;;;3.20;;
3417;SDS011;68007;51.312;12.372;2024-01-25T10:24:04;15.57;;;2.80;;
3417;SDS011;68007;51.312;12.372;2024-01-25T10:26:34;14.00;;;2.73;;
3417;SDS011;68007;51.312;12.372;2024-01-25T10:29:01;16.40;;;2.80;;
3417;SDS011;68007;51.312;12.372;2024-01-25T10:31:30;21.50;;;3.33;;
3417;SDS011;68007;51.312;12.372;2024-01-25T10:33:58;17.27;;;2.73;;
3417;SDS011;68007;51.312;12.372;2024-01-25T10:36:26;11.60;;;2.90;;
3417;SDS011;68007;51.312;12.372;2024-01-25T10:38:56;12.87;;;3.10;;
3417;SDS011;68007;51.312;12.372;2024-01-25T10:41:27;16.20;;;3.47;;
3417;SDS011;68007;51.312;12.372;2024-01-25T10:43:56;16.43;;;3.13;;
3417;SDS011;68007;51.312;12.372;2024-01-25T10:46:24;15.03;;;3.57;;
3417;SDS011;68007;51.312;12.372;2024-01-25T10:48:52;16.50;;;3.07;;
3417;SDS011;68007;51.312;12.372;2024-01-25T10:51:24;17.83;;;4.13;;
3417;SDS011;68007;51.312;12.372;2024-01-25T10:53:52;22.73;;;3.57;;
3417;SDS011;68007;51.312;12.372;2024-01-25T10:56:20;14.27;;;3.47;;
3417;SDS011;68007;51.312;12.372;2024-01-25T10:58:50;11.90;;;2.87;;
3417;SDS011;68007;51.312;12.372;2024-01-25T11:01:17;17.57;;;3.70;;
3417;SDS011;68007;51.312;12.372;2024-01-25T11:03:45;11.70;;;3.43;;
3417;SDS011;68007;51.312;12.372;2024-01-25T11:06:13;11.27;;;3.10;;
3417;SDS011;68007;51.312;12.372;2024-01-25T11:08:41;12.10;;;3.40;;
3417;SDS011;68007;51.312;12.372;2024-01-25T11:11:10;20.30;;;3.37;;
3417;SDS011;68007;51.312;12.372;2024-01-25T11:13:39;12.00;;;2.90;;
3417;SDS011;68007;51.312;12.372;2024-01-25T11:16:15;16.37;;;2.90;;
3417;SDS011;68007;51.312;12.372;2024-01-25T11:18:47;20.30;;;3.60;;
3417;SDS011;68007;51.312;12.372;2024-01-25T11:21:23;8.47;;;2.73;;
3417;SDS011;68007;51.312;12.372;2024-01-25T11:23:59;15.77;;;3.00;;
3417;SDS011;68007;51.312;12.372;2024-01-25T11:26:27;12.03;;;2.57;;
3417;SDS011;68007;51.312;12.372;2024-01-25T11:28:55;19.90;;;4.00;;
3417;SDS011;68007;51.312;12.372;2024-01-25T11:31:27;15.10;;;2.80;;
3417;SDS011;68007;51.312;12.372;2024-01-25T11:33:56;12.10;;;2.60;;
3417;SDS011;68007;51.312;12.372;2024-01-25T11:36:25;15.93;;;4.20;;
3417;SDS011;68007;51.312;12.372;2024-01-25T11:38:53;13.13;;;2.60;;
3417;SDS011;68007;51.312;12.372;2024-01-25T11:41:21;18.63;;;3.20;;
3417;SDS011;68007;51.312;12.372;2024-01-25T11:43:48;18.53;;;2.80;;
3417;SDS011;68007;51.312;12.372;2024-01-25T11:46:16;12.53;;;2.30;;
3417;SDS011;68007;51.312;12.372;2024-01-25T11:48:46;17.50;;;2.40;;
3417;SDS011;68007;51.312;12.372;2024-01-25T11:51:13;14.63;;;2.33;;
3417;SDS011;68007;51.312;12.372;2024-01-25T11:53:41;12.43;;;2.87;;
3417;SDS011;68007;51.312;12.372;2024-01-25T11:56:09;12.33;;;2.20;;
3417;SDS011;68007;51.312;12.372;2024-01-25T11:58:39;7.63;;;2.40;;
3417;SDS011;68007;51.312;12.372;2024-01-25T12:01:08;13.07;;;3.07;;
3417;SDS011;68007;51.312;12.372;2024-01-25T12:03:36;11.20;;;2.23;;
3417;SDS011;68007;51.312;12.372;2024-01-25T12:06:06;12.03;;;2.90;;
3417;SDS011;68007;51.312;12.372;2024-01-25T12:08:35;13.90;;;3.50;;
3417;SDS011;68007;51.312;12.372;2024-01-25T12:11:04;11.50;;;3.27;;
3417;SDS011;68007;51.312;12.372;2024-01-25T12:13:33;20.33;;;3.03;;
3417;SDS011;68007;51.312;12.372;2024-01-25T12:16:02;14.47;;;2.60;;
3417;SDS011;68007;51.312;12.372;2024-01-25T12:18:30;10.40;;;2.60;;
3417;SDS011;68007;51.312;12.372;2024-01-25T12:20:59;14.20;;;2.43;;
3417;SDS011;68007;51.312;12.372;2024-01-25T12:23:31;14.70;;;2.80;;
3417;SDS011;68007;51.312;12.372;2024-01-25T12:26:00;12.80;;;2.07;;
3417;SDS011;68007;51.312;12.372;2024-01-25T12:28:29;15.87;;;2.67;;
3417;SDS011;68007;51.312;12.372;2024-01-25T12:30:58;8.03;;;2.47;;
3417;SDS011;68007;51.312;12.372;2024-01-25T12:33:26;10.57;;;2.47;;
3417;SDS011;68007;51.312;12.372;2024-01-25T12:35:53;11.07;;;2.60;;
3417;SDS011;68007;51.312;12.372;2024-01-25T12:38:21;13.60;;;2.47;;
3417;SDS011;68007;51.312;12.372;2024-01-25T12:40:51;15.53;;;2.93;;
3417;SDS011;68007;51.312;12.372;2024-01-25T12:43:19;15.70;;;2.60;;
3417;SDS011;68007;51.312;12.372;2024-01-25T12:45:48;10.40;;;2.13;;
3417;SDS011;68007;51.312;12.372;2024-01-25T12:48:15;8.40;;;2.17;;
3417;SDS011;68007;51.312;12.372;2024-01-25T12:50:44;17.73;;;2.67;;
3417;SDS011;68007;51.312;12.372;2024-01-25T12:53:11;18.70;;;3.33;;
3417;SDS011;68007;51.312;12.372;2024-01-25T12:55:40;12.07;;;3.00;;
3417;SDS011;68007;51.312;12.372;2024-01-25T12:58:09;15.77;;;2.20;;
3417;SDS011;68007;51.312;12.372;2024-01-25T13:00:36;11.83;;;3.03;;
3417;SDS011;68007;51.312;12.372;2024-01-25T13:03:04;8.60;;;2.83;;
3417;SDS011;68007;51.312;12.372;2024-01-25T13:05:32;10.37;;;2.30;;
3417;SDS011;68007;51.312;12.372;2024-01-25T13:08:00;18.13;;;2.90;;
3417;SDS011;68007;51.312;12.372;2024-01-25T13:10:28;9.20;;;2.50;;
3417;SDS011;68007;51.312;12.372;2024-01-25T13:12:56;14.13;;;3.40;;
3417;SDS011;68007;51.312;12.372;2024-01-25T13:15:25;9.77;;;3.90;;
3417;SDS011;68007;51.312;12.372;2024-01-25T13:17:53;16.27;;;2.90;;
3417;SDS011;68007;51.312;12.372;2024-01-25T13:20:20;18.77;;;2.90;;
3417;SDS011;68007;51.312;12.372;2024-01-25T13:22:48;14.97;;;2.67;;
3417;SDS011;68007;51.312;12.372;2024-01-25T13:25:15;10.80;;;2.40;;
3417;SDS011;68007;51.312;12.372;2024-01-25T13:27:43;11.63;;;2.80;;
3417;SDS011;68007;51.312;12.372;2024-01-25T13:30:11;10.90;;;3.40;;
3417;SDS011;68007;51.312;12.372;2024-01-25T13:32:41;10.27;;;2.33;;
3417;SDS011;68007;51.312;12.372;2024-01-25T13:35:08;12.33;;;2.13;;
3417;SDS011;68007;51.312;12.372;2024-01-25T13:37:36;7.67;;;2.10;;
3417;SDS011;68007;51.312;12.372;2024-01-25T13:40:05;11.83;;;2.27;;
3417;SDS011;68007;51.312;12.372;2024-01-25T13:42:33;10.47;;;2.40;;
3417;SDS011;68007;51.312;12.372;2024-01-25T13:45:00;12.07;;;2.70;;
3417;SDS011;68007;51.312;12.372;2024-01-25T13:47:28;9.57;;;2.33;;
3417;SDS011;68007;51.312;12.372;2024-01-25T13:49:57;10.93;;;3.00;;
3417;SDS011;68007;51.312;12.372;2024-01-25T13:52:24;13.50;;;2.80;;
3417;SDS011;68007;51.312;12.372;2024-01-25T13:54:52;11.33;;;2.50;;
3417;SDS011;68007;51.312;12.372;2024-01-25T13:57:20;10.90;;;2.30;;
3417;SDS011;68007;51.312;12.372;2024-01-25T13:59:49;8.73;;;2.20;;
3417;SDS011;68007;51.312;12.372;2024-01-25T14:02:17;13.47;;;2.77;;
3417;SDS011;68007;51.312;12.372;2024-01-25T14:04:45;9.17;;;3.20;;
3417;SDS011;68007;51.312;12.372;2024-01-25T14:07:14;11.23;;;2.63;;
3417;SDS011;68007;51.312;12.372;2024-01-25T14:09:42;14.63;;;3.00;;
3417;SDS011;68007;51.312;12.372;2024-01-25T14:12:10;14.30;;;2.63;;
3417;SDS011;68007;51.312;12.372;2024-01-25T14:14:37;12.50;;;3.80;;
3417;SDS011;68007;51.312;12.372;2024-01-25T14:17:05;7.63;;;2.40;;
3417;SDS011;68007;51.312;12.372;2024-01-25T14:19:32;10.90;;;2.80;;
3417;SDS011;68007;51.312;12.372;2024-01-25T14:22:00;8.93;;;2.53;;
3417;SDS011;68007;51.312;12.372;2024-01-25T14:24:29;10.83;;;2.73;;
3417;SDS011;68007;51.312;12.372;2024-01-25T14:26:56;13.10;;;2.57;;
3417;SDS011;68007;51.312;12.372;2024-01-25T14:29:24;16.77;;;2.70;;
3417;SDS011;68007;51.312;12.372;2024-01-25T14:31:51;8.40;;;2.43;;
3417;SDS011;68007;51.312;12.372;2024-01-25T14:34:19;6.47;;;2.37;;
3417;SDS011;68007;51.312;12.372;2024-01-25T14:36:46;10.87;;;3.10;;
3417;SDS011;68007;51.312;12.372;2024-01-25T14:39:16;12.20;;;2.63;;
3417;SDS011;68007;51.312;12.372;2024-01-25T14:41:45;9.57;;;2.47;;